Archiv

Tageswerte

Alle gespeicherten Messwerte deiner Wetterstation.

Ausgewählter Tag09.01.2024
← Vortag Nächster Tag → Heute
Messpunkte288
Max Temperatur-6,7 °C
Min Temperatur-13,4 °C
Ø Temperatur-10,5 °C
Regen0,0 mm
Stärkste Böe16,4 km/h

Messwerte vom 09.01.2024

288 gespeicherte Messwerte

Diagramm anzeigen
ZeitTemperaturFeuchteDruckWindBöeRichtungRegenUVHelligkeit
23:59-12,6 °C90 %1.023,0 hPa0,0 km/h0,0 km/h90°0,0 mm
23:54-12,6 °C90 %1.023,0 hPa0,0 km/h0,0 km/h90°0,0 mm
23:49-12,4 °C90 %1.023,0 hPa0,0 km/h0,0 km/h90°0,0 mm
23:44-12,3 °C90 %1.023,0 hPa0,0 km/h0,0 km/h90°0,0 mm
23:39-12,2 °C90 %1.023,0 hPa0,0 km/h0,0 km/h90°0,0 mm
23:34-12,1 °C90 %1.023,0 hPa0,0 km/h0,0 km/h90°0,0 mm
23:29-12,0 °C90 %1.023,0 hPa0,0 km/h0,0 km/h90°0,0 mm
23:24-11,8 °C90 %1.023,0 hPa0,0 km/h0,0 km/h90°0,0 mm
23:19-11,6 °C90 %1.023,0 hPa0,0 km/h0,0 km/h90°0,0 mm
23:14-11,5 °C89 %1.023,0 hPa0,0 km/h0,0 km/h90°0,0 mm
23:09-11,4 °C90 %1.023,0 hPa0,0 km/h0,0 km/h90°0,0 mm
23:04-11,3 °C89 %1.023,0 hPa0,0 km/h0,0 km/h90°0,0 mm
22:59-11,1 °C89 %1.023,0 hPa0,0 km/h0,0 km/h90°0,0 mm
22:54-10,9 °C89 %1.023,0 hPa0,0 km/h0,0 km/h90°0,0 mm
22:49-10,8 °C89 %1.023,0 hPa0,0 km/h0,0 km/h90°0,0 mm
22:44-10,9 °C89 %1.023,0 hPa0,0 km/h0,0 km/h90°0,0 mm
22:39-10,9 °C89 %1.023,0 hPa0,1 km/h2,7 km/h90°0,0 mm
22:34-11,0 °C89 %1.023,0 hPa0,0 km/h0,0 km/h90°0,0 mm
22:29-11,2 °C90 %1.023,0 hPa0,2 km/h2,1 km/h90°0,0 mm
22:24-11,4 °C91 %1.023,0 hPa0,1 km/h1,8 km/h90°0,0 mm
22:19-11,5 °C90 %1.023,0 hPa0,1 km/h1,8 km/h90°0,0 mm
22:14-11,5 °C90 %1.023,0 hPa0,0 km/h0,0 km/h90°0,0 mm
22:09-11,5 °C91 %1.023,0 hPa0,0 km/h0,0 km/h90°0,0 mm
22:04-11,5 °C90 %1.023,0 hPa0,0 km/h0,0 km/h90°0,0 mm
21:59-11,4 °C90 %1.023,0 hPa0,0 km/h0,0 km/h90°0,0 mm
21:54-11,2 °C89 %1.023,0 hPa0,0 km/h0,0 km/h90°0,0 mm
21:49-11,0 °C89 %1.023,0 hPa0,0 km/h0,0 km/h90°0,0 mm
21:44-11,0 °C89 %1.023,0 hPa0,0 km/h0,0 km/h90°0,0 mm
21:39-10,9 °C89 %1.023,0 hPa0,0 km/h0,0 km/h90°0,0 mm
21:34-10,7 °C89 %1.023,0 hPa0,0 km/h0,0 km/h90°0,0 mm
21:29-10,5 °C88 %1.023,0 hPa0,0 km/h0,0 km/h90°0,0 mm
21:24-10,5 °C88 %1.023,0 hPa0,0 km/h0,0 km/h90°0,0 mm
21:19-10,4 °C88 %1.023,0 hPa0,0 km/h0,0 km/h90°0,0 mm
21:14-10,4 °C88 %1.023,0 hPa0,1 km/h1,8 km/h90°0,0 mm
21:09-10,4 °C88 %1.023,0 hPa0,5 km/h2,1 km/h90°0,0 mm
21:04-10,5 °C88 %1.023,0 hPa0,0 km/h0,0 km/h90°0,0 mm
20:59-10,5 °C89 %1.023,0 hPa0,2 km/h2,1 km/h90°0,0 mm
20:54-10,5 °C89 %1.023,0 hPa0,0 km/h0,0 km/h90°0,0 mm
20:49-10,5 °C88 %1.023,0 hPa0,2 km/h2,4 km/h90°0,0 mm
20:44-10,5 °C88 %1.023,0 hPa0,0 km/h0,0 km/h90°0,0 mm
20:39-10,6 °C89 %1.023,0 hPa0,4 km/h2,1 km/h90°0,0 mm
20:34-10,5 °C89 %1.023,0 hPa0,2 km/h3,2 km/h90°0,0 mm
20:29-10,5 °C89 %1.023,0 hPa0,0 km/h0,0 km/h90°0,0 mm
20:24-10,3 °C88 %1.023,0 hPa0,0 km/h0,0 km/h90°0,0 mm
20:19-10,1 °C88 %1.023,0 hPa0,0 km/h0,0 km/h90°0,0 mm
20:14-10,0 °C87 %1.023,0 hPa0,1 km/h1,8 km/h90°0,0 mm
20:09-9,9 °C87 %1.023,0 hPa0,1 km/h1,8 km/h90°0,0 mm
20:04-9,8 °C87 %1.023,0 hPa0,7 km/h2,1 km/h90°0,0 mm
19:59-9,8 °C87 %1.023,0 hPa1,0 km/h2,4 km/h90°0,0 mm
19:54-9,8 °C87 %1.023,0 hPa0,7 km/h2,7 km/h105°0,0 mm
19:49-9,7 °C87 %1.023,0 hPa0,0 km/h0,0 km/h112°0,0 mm
19:44-9,6 °C86 %1.024,0 hPa0,6 km/h2,4 km/h112°0,0 mm
19:39-9,6 °C86 %1.024,0 hPa1,6 km/h3,5 km/h112°0,0 mm
19:34-9,5 °C86 %1.024,0 hPa1,0 km/h2,7 km/h112°0,0 mm
19:29-9,4 °C86 %1.024,0 hPa1,7 km/h3,5 km/h112°0,0 mm
19:24-9,3 °C85 %1.024,0 hPa1,8 km/h3,5 km/h112°0,0 mm
19:19-9,3 °C85 %1.024,0 hPa3,5 km/h6,8 km/h112°0,0 mm
19:14-9,2 °C85 %1.023,0 hPa2,7 km/h6,4 km/h104°0,0 mm
19:09-9,2 °C85 %1.023,0 hPa2,8 km/h4,2 km/h102°0,0 mm
19:04-9,3 °C85 %1.023,0 hPa3,0 km/h6,4 km/h110°0,0 mm
18:59-9,4 °C85 %1.024,0 hPa2,4 km/h3,9 km/h107°0,0 mm
18:54-9,4 °C85 %1.024,0 hPa2,2 km/h4,2 km/h85°0,0 mm
18:49-9,4 °C85 %1.024,0 hPa1,5 km/h3,2 km/h104°0,0 mm
18:44-9,4 °C85 %1.024,0 hPa1,7 km/h3,2 km/h112°0,0 mm
18:39-9,4 °C85 %1.024,0 hPa1,5 km/h3,5 km/h113°0,0 mm
18:34-9,4 °C85 %1.024,0 hPa1,9 km/h3,9 km/h112°0,0 mm
18:29-9,4 °C85 %1.024,0 hPa2,2 km/h5,3 km/h110°0,0 mm
18:24-9,4 °C86 %1.024,0 hPa1,6 km/h3,2 km/h79°0,0 mm
18:19-9,2 °C85 %1.024,0 hPa1,0 km/h2,7 km/h68°0,0 mm
18:14-9,1 °C84 %1.024,0 hPa0,0 km/h0,0 km/h68°0,0 mm
18:09-9,0 °C84 %1.024,0 hPa1,0 km/h2,4 km/h83°0,0 mm
18:04-8,9 °C84 %1.024,0 hPa0,8 km/h2,4 km/h90°0,0 mm
17:59-8,7 °C84 %1.024,0 hPa1,9 km/h3,2 km/h108°0,0 mm
17:54-8,5 °C83 %1.024,0 hPa4,0 km/h8,2 km/h100°0,0 mm
17:49-8,5 °C82 %1.024,0 hPa3,7 km/h6,8 km/h107°0,0 mm
17:44-8,4 °C82 %1.024,0 hPa6,3 km/h9,3 km/h110°0,0 mm
17:39-8,4 °C82 %1.024,0 hPa4,7 km/h8,9 km/h103°0,0 mm
17:34-8,3 °C82 %1.024,0 hPa4,7 km/h8,5 km/h99°0,0 mm
17:29-8,2 °C81 %1.024,0 hPa5,8 km/h8,9 km/h110°0,0 mm
17:24-8,2 °C81 %1.024,0 hPa5,3 km/h10,8 km/h109°0,0 mm
17:19-8,2 °C81 %1.024,0 hPa3,7 km/h7,4 km/h105°0,0 mm
17:14-8,2 °C81 %1.024,0 hPa3,7 km/h8,9 km/h104°0,0 mm
17:09-8,4 °C81 %1.024,0 hPa3,6 km/h8,9 km/h104°0,0 mm
17:04-8,5 °C82 %1.024,0 hPa3,7 km/h8,5 km/h105°0,0 mm
16:59-8,6 °C83 %1.024,0 hPa3,2 km/h7,4 km/h106°0,0 mm
16:54-8,5 °C84 %1.024,0 hPa2,1 km/h4,7 km/h112°0,0 mm
16:49-8,4 °C83 %1.024,0 hPa1,0 km/h2,7 km/h112°0,0 mm
16:44-8,4 °C83 %1.024,0 hPa0,7 km/h2,4 km/h112°0,0 mm
16:39-8,4 °C83 %1.024,0 hPa1,2 km/h6,1 km/h106°0,0 mm
16:34-8,3 °C83 %1.024,0 hPa0,1 km/h1,8 km/h90°0,0 mm
16:29-8,1 °C82 %1.024,0 hPa0,3 km/h2,4 km/h90°0,0 mm
16:24-8,0 °C82 %1.024,0 hPa0,7 km/h2,1 km/h102°0,0 mm
16:19-7,9 °C82 %1.024,0 hPa0,4 km/h1,8 km/h85°0,0 mm
16:14-7,8 °C81 %1.024,0 hPa1,1 km/h2,7 km/h83°0,0 mm
16:09-7,7 °C81 %1.024,0 hPa0,8 km/h3,9 km/h98°0,0 mm
16:04-7,6 °C80 %1.024,0 hPa3,2 km/h12,2 km/h110°0,0 mm
15:59-7,6 °C80 %1.024,0 hPa3,4 km/h8,5 km/h107°0,0 mm
15:54-7,6 °C79 %1.024,0 hPa4,0 km/h7,9 km/h109°0,0 mm
15:49-7,5 °C79 %1.024,0 hPa5,9 km/h11,1 km/h105°0,0 mm
15:44-7,5 °C79 %1.024,0 hPa4,0 km/h9,3 km/h99°0,0 mm
15:39-7,4 °C78 %1.024,0 hPa2,0 km/h6,1 km/h116°0,0 mm
15:34-7,4 °C78 %1.024,0 hPa2,4 km/h7,4 km/h357°0,0 mm
15:29-7,4 °C78 %1.024,0 hPa2,7 km/h7,4 km/h80°0,0 mm
15:24-7,3 °C77 %1.024,0 hPa2,0 km/h5,3 km/h110°0,0 mm
15:19-7,2 °C77 %1.024,0 hPa2,4 km/h5,6 km/h229°0,0 mm
15:14-7,0 °C76 %1.024,0 hPa2,2 km/h5,0 km/h23°0,0 mm
15:09-6,9 °C76 %1.024,0 hPa4,6 km/h16,4 km/h107°0,0 mm
15:04-6,8 °C75 %1.024,0 hPa3,1 km/h7,4 km/h103°0,0 mm
14:59-6,7 °C75 %1.024,0 hPa2,0 km/h4,7 km/h98°0,0 mm
14:54-6,7 °C74 %1.024,0 hPa2,7 km/h6,8 km/h114°0,0 mm
14:49-6,7 °C74 %1.024,0 hPa2,9 km/h8,2 km/h167°0,0 mm
14:44-6,7 °C75 %1.024,0 hPa2,3 km/h8,5 km/h215°0,0 mm
14:39-6,7 °C73 %1.024,0 hPa3,2 km/h7,1 km/h337°0,0 mm
14:34-6,7 °C74 %1.024,0 hPa2,9 km/h10,3 km/h96°0,0 mm
14:29-6,8 °C73 %1.024,0 hPa2,7 km/h9,3 km/h105°0,0 mm
14:24-6,8 °C74 %1.024,0 hPa3,8 km/h7,9 km/h88°0,0 mm
14:19-6,8 °C74 %1.024,0 hPa3,0 km/h8,9 km/h98°0,0 mm
14:14-6,7 °C74 %1.024,0 hPa3,9 km/h7,9 km/h88°0,0 mm
14:09-6,8 °C73 %1.024,0 hPa2,7 km/h8,5 km/h356°0,0 mm
14:04-6,9 °C74 %1.024,0 hPa2,5 km/h6,4 km/h239°0,0 mm
13:59-6,9 °C75 %1.024,0 hPa3,5 km/h8,5 km/h112°0,0 mm
13:54-6,8 °C74 %1.024,0 hPa3,6 km/h8,9 km/h40°0,0 mm
13:49-6,8 °C75 %1.024,0 hPa2,9 km/h8,9 km/h259°0,0 mm
13:44-6,9 °C75 %1.024,0 hPa2,7 km/h7,4 km/h119°0,0 mm
13:39-7,0 °C75 %1.024,0 hPa1,7 km/h3,9 km/h0,0 mm
13:34-7,1 °C76 %1.024,0 hPa2,2 km/h5,0 km/h98°0,0 mm
13:29-7,1 °C76 %1.024,0 hPa2,9 km/h5,6 km/h341°0,0 mm
13:24-7,1 °C76 %1.024,0 hPa2,9 km/h6,8 km/h75°0,0 mm
13:19-7,2 °C76 %1.024,0 hPa2,6 km/h5,6 km/h341°0,0 mm
13:14-7,4 °C77 %1.024,0 hPa2,4 km/h5,6 km/h79°0,0 mm
13:09-7,4 °C78 %1.024,0 hPa2,5 km/h5,3 km/h105°0,0 mm
13:04-7,5 °C78 %1.024,0 hPa2,0 km/h3,2 km/h111°0,0 mm
12:59-7,6 °C77 %1.024,0 hPa3,0 km/h7,9 km/h352°0,0 mm
12:54-7,8 °C79 %1.024,0 hPa1,8 km/h5,3 km/h106°0,0 mm
12:49-7,9 °C79 %1.024,0 hPa1,8 km/h7,4 km/h96°0,0 mm
12:44-7,9 °C79 %1.024,0 hPa3,3 km/h7,4 km/h100°0,0 mm
12:39-7,9 °C80 %1.024,0 hPa3,3 km/h7,4 km/h103°0,0 mm
12:34-8,0 °C80 %1.024,0 hPa3,0 km/h6,4 km/h47°0,0 mm
12:29-8,0 °C80 %1.024,0 hPa1,7 km/h5,3 km/h76°0,0 mm
12:24-8,1 °C80 %1.024,0 hPa2,0 km/h3,5 km/h104°0,0 mm
12:19-8,3 °C81 %1.024,0 hPa2,5 km/h6,4 km/h92°0,0 mm
12:14-8,4 °C82 %1.024,0 hPa2,4 km/h3,9 km/h341°0,0 mm
12:09-8,4 °C82 %1.024,0 hPa2,2 km/h6,1 km/h72°0,0 mm
12:04-8,5 °C81 %1.024,0 hPa2,8 km/h8,5 km/h158°0,0 mm
11:59-8,7 °C82 %1.025,1 hPa1,2 km/h3,2 km/h285°0,0 mm
11:54-9,0 °C83 %1.025,1 hPa1,8 km/h3,9 km/h249°0,0 mm
11:49-9,2 °C83 %1.025,1 hPa1,5 km/h5,3 km/h155°0,0 mm
11:44-9,3 °C83 %1.025,1 hPa1,8 km/h3,9 km/h112°0,0 mm
11:39-9,4 °C83 %1.025,1 hPa1,7 km/h4,2 km/h86°0,0 mm
11:34-9,6 °C83 %1.025,1 hPa1,8 km/h5,6 km/h96°0,0 mm
11:29-9,7 °C83 %1.025,1 hPa2,3 km/h8,9 km/h82°0,0 mm
11:24-9,8 °C83 %1.025,1 hPa2,4 km/h8,9 km/h61°0,0 mm
11:19-9,9 °C84 %1.025,1 hPa2,2 km/h3,5 km/h19°0,0 mm
11:14-10,1 °C85 %1.025,1 hPa1,4 km/h5,3 km/h96°0,0 mm
11:09-10,3 °C85 %1.025,1 hPa1,7 km/h3,5 km/h74°0,0 mm
11:04-10,5 °C86 %1.025,1 hPa2,4 km/h7,1 km/h97°0,0 mm
10:59-10,5 °C85 %1.025,1 hPa4,4 km/h7,1 km/h112°0,0 mm
10:54-10,6 °C86 %1.025,1 hPa3,6 km/h8,5 km/h108°0,0 mm
10:49-10,7 °C86 %1.025,1 hPa2,4 km/h8,9 km/h114°0,0 mm
10:44-10,8 °C86 %1.025,1 hPa2,0 km/h6,4 km/h120°0,0 mm
10:39-10,9 °C87 %1.025,1 hPa1,2 km/h3,2 km/h124°0,0 mm
10:34-11,0 °C87 %1.025,1 hPa2,6 km/h5,6 km/h97°0,0 mm
10:29-11,1 °C87 %1.025,1 hPa0,8 km/h3,5 km/h100°0,0 mm
10:24-11,1 °C87 %1.025,1 hPa1,2 km/h3,9 km/h108°0,0 mm
10:19-11,2 °C87 %1.025,1 hPa1,1 km/h2,7 km/h258°0,0 mm
10:14-11,3 °C87 %1.025,1 hPa1,7 km/h7,4 km/h68°0,0 mm
10:09-11,3 °C87 %1.025,1 hPa1,3 km/h5,6 km/h82°0,0 mm
10:04-11,3 °C87 %1.025,1 hPa0,6 km/h2,7 km/h68°0,0 mm
09:59-11,5 °C88 %1.025,1 hPa0,9 km/h5,0 km/h331°0,0 mm
09:54-11,5 °C88 %1.025,1 hPa1,0 km/h2,7 km/h277°0,0 mm
09:49-11,6 °C88 %1.025,1 hPa1,0 km/h2,7 km/h281°0,0 mm
09:44-11,7 °C88 %1.025,1 hPa0,7 km/h2,7 km/h122°0,0 mm
09:39-11,8 °C88 %1.025,1 hPa1,1 km/h5,0 km/h97°0,0 mm
09:34-11,9 °C88 %1.025,1 hPa0,8 km/h2,7 km/h90°0,0 mm
09:29-12,0 °C88 %1.025,1 hPa1,0 km/h3,2 km/h69°0,0 mm
09:24-12,1 °C88 %1.025,1 hPa0,8 km/h2,4 km/h134°0,0 mm
09:19-12,2 °C88 %1.025,1 hPa0,8 km/h2,4 km/h112°0,0 mm
09:14-12,3 °C88 %1.025,1 hPa0,9 km/h2,7 km/h139°0,0 mm
09:09-12,4 °C88 %1.025,1 hPa0,1 km/h1,8 km/h203°0,0 mm
09:04-12,4 °C88 %1.025,1 hPa0,0 km/h0,0 km/h112°0,0 mm
08:59-12,5 °C88 %1.025,1 hPa0,5 km/h2,7 km/h117°0,0 mm
08:54-12,5 °C88 %1.025,1 hPa1,5 km/h5,3 km/h112°0,0 mm
08:49-12,5 °C88 %1.025,1 hPa0,6 km/h2,4 km/h70°0,0 mm
08:44-12,5 °C88 %1.025,1 hPa0,4 km/h2,4 km/h68°0,0 mm
08:39-12,5 °C88 %1.025,1 hPa0,5 km/h2,1 km/h82°0,0 mm
08:34-12,5 °C88 %1.025,1 hPa0,6 km/h3,2 km/h38°0,0 mm
08:29-12,6 °C88 %1.025,1 hPa1,0 km/h2,7 km/h288°0,0 mm
08:24-12,6 °C88 %1.025,1 hPa1,0 km/h3,2 km/h112°0,0 mm
08:19-12,6 °C88 %1.025,1 hPa0,5 km/h2,7 km/h112°0,0 mm
08:14-12,7 °C88 %1.025,1 hPa1,7 km/h3,9 km/h102°0,0 mm
08:09-12,7 °C88 %1.025,1 hPa1,0 km/h2,7 km/h99°0,0 mm
08:04-12,7 °C88 %1.025,1 hPa2,2 km/h4,2 km/h112°0,0 mm
07:59-12,7 °C88 %1.025,1 hPa1,2 km/h3,2 km/h112°0,0 mm
07:54-12,7 °C88 %1.025,1 hPa1,1 km/h2,4 km/h112°0,0 mm
07:49-12,7 °C88 %1.025,1 hPa0,8 km/h2,7 km/h112°0,0 mm
07:44-12,7 °C88 %1.025,1 hPa0,3 km/h2,1 km/h93°0,0 mm
07:39-12,7 °C88 %1.025,1 hPa0,5 km/h2,7 km/h86°0,0 mm
07:34-12,7 °C88 %1.025,1 hPa0,4 km/h2,4 km/h68°0,0 mm
07:29-12,7 °C88 %1.025,1 hPa0,9 km/h3,9 km/h98°0,0 mm
07:24-12,7 °C88 %1.025,1 hPa0,3 km/h2,4 km/h157°0,0 mm
07:19-12,7 °C88 %1.025,1 hPa0,4 km/h2,7 km/h152°0,0 mm
07:14-12,7 °C88 %1.025,1 hPa0,1 km/h2,4 km/h112°0,0 mm
07:09-12,6 °C88 %1.025,1 hPa0,3 km/h2,1 km/h112°0,0 mm
07:04-12,6 °C88 %1.025,1 hPa0,4 km/h2,7 km/h112°0,0 mm
06:59-12,5 °C88 %1.025,1 hPa0,0 km/h0,0 km/h112°0,0 mm
06:54-12,5 °C88 %1.025,1 hPa0,1 km/h2,1 km/h112°0,0 mm
06:49-12,5 °C88 %1.025,1 hPa0,1 km/h1,8 km/h112°0,0 mm
06:44-12,4 °C89 %1.024,0 hPa1,9 km/h3,5 km/h109°0,0 mm
06:39-12,4 °C89 %1.024,0 hPa0,5 km/h2,4 km/h83°0,0 mm
06:34-12,4 °C88 %1.024,0 hPa0,7 km/h2,4 km/h81°0,0 mm
06:29-12,4 °C88 %1.025,1 hPa0,5 km/h2,7 km/h90°0,0 mm
06:24-12,4 °C88 %1.025,1 hPa0,7 km/h2,7 km/h12°0,0 mm
06:19-12,4 °C88 %1.025,1 hPa0,5 km/h3,5 km/h31°0,0 mm
06:14-12,4 °C88 %1.025,1 hPa0,9 km/h2,7 km/h86°0,0 mm
06:09-12,5 °C88 %1.025,1 hPa1,1 km/h3,2 km/h112°0,0 mm
06:04-12,5 °C88 %1.025,1 hPa0,7 km/h3,2 km/h116°0,0 mm
05:59-12,5 °C88 %1.024,0 hPa0,1 km/h1,8 km/h112°0,0 mm
05:54-12,5 °C88 %1.024,0 hPa0,3 km/h2,4 km/h109°0,0 mm
05:49-12,5 °C88 %1.024,0 hPa0,1 km/h1,8 km/h45°0,0 mm
05:44-12,5 °C88 %1.024,0 hPa0,3 km/h2,7 km/h61°0,0 mm
05:39-12,5 °C88 %1.024,0 hPa0,2 km/h1,8 km/h338°0,0 mm
05:34-12,6 °C88 %1.024,0 hPa0,1 km/h1,8 km/h360°0,0 mm
05:29-12,7 °C89 %1.024,0 hPa0,0 km/h0,0 km/h248°0,0 mm
05:24-12,8 °C89 %1.024,0 hPa0,6 km/h3,2 km/h338°0,0 mm
05:19-12,7 °C89 %1.024,0 hPa0,0 km/h0,0 km/h292°0,0 mm
05:14-12,6 °C88 %1.024,0 hPa0,0 km/h0,0 km/h292°0,0 mm
05:09-12,7 °C88 %1.024,0 hPa0,2 km/h2,4 km/h54°0,0 mm
05:04-12,8 °C89 %1.024,0 hPa0,1 km/h1,8 km/h158°0,0 mm
04:59-12,9 °C89 %1.024,0 hPa0,0 km/h0,0 km/h112°0,0 mm
04:54-12,9 °C89 %1.024,0 hPa0,0 km/h0,0 km/h112°0,0 mm
04:49-12,8 °C88 %1.024,0 hPa0,0 km/h0,0 km/h112°0,0 mm
04:44-12,7 °C88 %1.024,0 hPa0,0 km/h0,0 km/h112°0,0 mm
04:39-12,7 °C88 %1.024,0 hPa0,0 km/h0,0 km/h112°0,0 mm
04:34-12,8 °C89 %1.024,0 hPa0,0 km/h0,0 km/h112°0,0 mm
04:29-12,8 °C89 %1.024,0 hPa0,0 km/h0,0 km/h112°0,0 mm
04:24-13,0 °C89 %1.024,0 hPa0,0 km/h0,0 km/h112°0,0 mm
04:19-13,3 °C89 %1.024,0 hPa0,0 km/h0,0 km/h112°0,0 mm
04:14-13,4 °C89 %1.024,0 hPa0,0 km/h0,0 km/h112°0,0 mm
04:09-13,4 °C89 %1.024,0 hPa0,0 km/h0,0 km/h112°0,0 mm
04:04-13,2 °C89 %1.024,0 hPa0,0 km/h0,0 km/h112°0,0 mm
03:59-13,1 °C89 %1.024,0 hPa0,0 km/h0,0 km/h112°0,0 mm
03:54-13,0 °C88 %1.024,0 hPa0,0 km/h0,0 km/h112°0,0 mm
03:49-12,8 °C88 %1.024,0 hPa0,0 km/h0,0 km/h112°0,0 mm
03:44-12,8 °C88 %1.024,0 hPa0,0 km/h0,0 km/h112°0,0 mm
03:39-12,7 °C88 %1.024,0 hPa0,0 km/h0,0 km/h112°0,0 mm
03:34-12,6 °C88 %1.024,0 hPa0,0 km/h0,0 km/h112°0,0 mm
03:29-12,5 °C88 %1.024,0 hPa0,0 km/h0,0 km/h112°0,0 mm
03:24-12,4 °C88 %1.024,0 hPa0,0 km/h0,0 km/h112°0,0 mm
03:19-12,2 °C87 %1.024,0 hPa0,0 km/h0,0 km/h112°0,0 mm
03:14-12,2 °C87 %1.024,0 hPa0,1 km/h1,8 km/h112°0,0 mm
03:09-12,2 °C87 %1.024,0 hPa0,6 km/h2,7 km/h112°0,0 mm
03:04-12,1 °C87 %1.024,0 hPa0,2 km/h2,1 km/h112°0,0 mm
02:59-12,1 °C87 %1.024,0 hPa0,0 km/h0,0 km/h112°0,0 mm
02:54-12,0 °C87 %1.024,0 hPa0,1 km/h1,8 km/h112°0,0 mm
02:49-12,0 °C87 %1.024,0 hPa0,2 km/h2,1 km/h112°0,0 mm
02:44-12,0 °C87 %1.024,0 hPa0,6 km/h2,1 km/h112°0,0 mm
02:39-11,8 °C87 %1.024,0 hPa0,0 km/h0,0 km/h112°0,0 mm
02:34-11,6 °C86 %1.024,0 hPa0,3 km/h2,7 km/h112°0,0 mm
02:29-11,5 °C86 %1.025,1 hPa0,2 km/h2,1 km/h112°0,0 mm
02:24-11,5 °C85 %1.025,1 hPa1,6 km/h4,7 km/h112°0,0 mm
02:19-11,5 °C85 %1.025,1 hPa0,8 km/h3,5 km/h96°0,0 mm
02:14-11,5 °C85 %1.025,1 hPa1,2 km/h3,5 km/h92°0,0 mm
02:09-11,4 °C85 %1.025,1 hPa0,5 km/h2,4 km/h71°0,0 mm
02:04-11,3 °C85 %1.025,1 hPa0,4 km/h2,7 km/h112°0,0 mm
01:59-11,3 °C85 %1.025,1 hPa1,7 km/h4,7 km/h89°0,0 mm
01:54-11,3 °C85 %1.025,1 hPa0,5 km/h3,9 km/h98°0,0 mm
01:49-11,3 °C84 %1.025,1 hPa0,6 km/h2,7 km/h90°0,0 mm
01:44-11,3 °C84 %1.024,0 hPa0,6 km/h2,7 km/h72°0,0 mm
01:39-11,2 °C84 %1.024,0 hPa0,5 km/h3,2 km/h80°0,0 mm
01:34-11,2 °C84 %1.024,0 hPa0,8 km/h3,2 km/h90°0,0 mm
01:29-11,1 °C83 %1.025,1 hPa0,3 km/h3,9 km/h73°0,0 mm
01:24-11,1 °C83 %1.025,1 hPa1,4 km/h3,2 km/h84°0,0 mm
01:19-11,1 °C83 %1.025,1 hPa1,4 km/h3,9 km/h94°0,0 mm
01:14-11,1 °C83 %1.024,0 hPa1,4 km/h3,9 km/h106°0,0 mm
01:09-11,1 °C83 %1.024,0 hPa0,8 km/h2,7 km/h81°0,0 mm
01:04-11,0 °C83 %1.024,0 hPa0,9 km/h2,4 km/h71°0,0 mm
00:59-11,0 °C83 %1.024,0 hPa0,8 km/h2,7 km/h96°0,0 mm
00:54-11,0 °C83 %1.024,0 hPa0,2 km/h2,1 km/h248°0,0 mm
00:49-11,1 °C83 %1.024,0 hPa0,8 km/h3,2 km/h242°0,0 mm
00:44-11,1 °C83 %1.024,0 hPa0,4 km/h2,1 km/h310°0,0 mm
00:39-11,1 °C83 %1.024,0 hPa0,2 km/h2,4 km/h0,0 mm
00:34-11,1 °C83 %1.024,0 hPa0,0 km/h0,0 km/h338°0,0 mm
00:29-11,0 °C83 %1.024,0 hPa0,1 km/h1,8 km/h338°0,0 mm
00:24-11,0 °C82 %1.024,0 hPa0,2 km/h1,8 km/h112°0,0 mm
00:19-10,9 °C82 %1.024,0 hPa0,2 km/h1,8 km/h112°0,0 mm
00:14-10,9 °C82 %1.024,0 hPa0,3 km/h3,2 km/h112°0,0 mm
00:09-10,9 °C82 %1.024,0 hPa0,2 km/h1,8 km/h112°0,0 mm
00:04-10,8 °C82 %1.024,0 hPa0,3 km/h1,8 km/h112°0,0 mm